Time;durP1;ratioP1;P1;durP2;ratioP2;P2;SDS_P1;SDS_P2;PMS_P1;PMS_P2;Temp;Humidity;BMP_temperature;BMP_pressure;BME280_temperature;BME280_humidity;BME280_pressure;Samples;Min_cycle;Max_cycle;Signal;HPM_P1;HPM_P2
2023/10/24 00:00:23;;;;;;;5.57;4.05;;;;;;;;;;5054569;28;20382;-80
2023/10/24 00:02:49;;;;;;;5.03;3.90;;;;;;;;;;5053860;28;20421;-80
2023/10/24 00:05:15;;;;;;;4.45;3.97;;;;;;;;;;5054265;28;20374;-80
2023/10/24 00:07:42;;;;;;;4.05;3.63;;;;;;;;;;5054313;28;20388;-80
2023/10/24 00:10:08;;;;;;;4.63;4.15;;;;;;;;;;5054541;28;20374;-80
2023/10/24 00:12:34;;;;;;;6.22;4.53;;;;;;;;;;5054309;28;20401;-80
2023/10/24 00:15:00;;;;;;;5.88;3.90;;;;;;;;;;5054000;28;20396;-80
2023/10/24 00:17:26;;;;;;;6.75;4.65;;;;;;;;;;5054361;28;20866;-80
2023/10/24 00:19:52;;;;;;;6.10;4.20;;;;;;;;;;5054206;28;20385;-80
2023/10/24 00:22:18;;;;;;;5.07;4.57;;;;;;;;;;5054405;28;20428;-80
2023/10/24 00:24:44;;;;;;;5.25;4.70;;;;;;;;;;5054180;28;20389;-80
2023/10/24 00:27:10;;;;;;;4.38;3.92;;;;;;;;;;5054452;28;20439;-80
2023/10/24 00:29:36;;;;;;;4.28;3.85;;;;;;;;;;5055145;28;20709;-80
2023/10/24 00:32:02;;;;;;;4.35;3.85;;;;;;;;;;5056244;28;20417;-80
2023/10/24 00:34:28;;;;;;;4.00;3.60;;;;;;;;;;5056772;28;20769;-80
2023/10/24 00:36:54;;;;;;;4.73;3.83;;;;;;;;;;5055334;28;20439;-80
2023/10/24 00:39:20;;;;;;;3.67;3.38;;;;;;;;;;5055272;28;20427;-80
2023/10/24 00:41:46;;;;;;;5.20;3.97;;;;;;;;;;5055485;28;20492;-80
2023/10/24 00:44:13;;;;;;;4.60;3.63;;;;;;;;;;5055508;28;20813;-80
2023/10/24 00:46:42;;;;;;;4.13;3.40;;;;;;;;;;5054480;28;20523;-80
2023/10/24 00:49:09;;;;;;;3.75;3.45;;;;;;;;;;5054743;28;20373;-80
2023/10/24 00:51:35;;;;;;;3.65;3.35;;;;;;;;;;5054664;28;20877;-80
2023/10/24 00:54:02;;;;;;;4.57;3.53;;;;;;;;;;5054608;28;20783;-80
2023/10/24 00:56:30;;;;;;;3.63;3.33;;;;;;;;;;5054484;28;20392;-80
2023/10/24 00:58:56;;;;;;;3.60;3.30;;;;;;;;;;5054560;28;20830;-80
2023/10/24 01:01:22;;;;;;;4.15;3.58;;;;;;;;;;5056344;28;20431;-80
2023/10/24 01:03:49;;;;;;;4.28;3.15;;;;;;;;;;5058189;28;20397;-80
2023/10/24 01:06:18;;;;;;;3.80;3.17;;;;;;;;;;5058174;28;20480;-80
2023/10/24 01:08:44;;;;;;;5.45;3.45;;;;;;;;;;5058144;28;20401;-80
2023/10/24 01:11:11;;;;;;;4.40;3.57;;;;;;;;;;5057740;28;20413;-80
2023/10/24 01:13:37;;;;;;;3.78;3.30;;;;;;;;;;5057741;28;20380;-80
2023/10/24 01:16:03;;;;;;;5.07;3.63;;;;;;;;;;5057710;28;20511;-80
2023/10/24 01:18:29;;;;;;;4.38;3.38;;;;;;;;;;5058197;28;20373;-80
2023/10/24 01:20:55;;;;;;;6.03;3.85;;;;;;;;;;5057983;28;20700;-80
2023/10/24 01:23:22;;;;;;;3.92;3.60;;;;;;;;;;5057806;28;20523;-81
2023/10/24 01:25:49;;;;;;;4.78;3.47;;;;;;;;;;5058220;28;20388;-80
2023/10/24 01:28:15;;;;;;;3.78;3.47;;;;;;;;;;5057665;28;20385;-80
2023/10/24 01:30:41;;;;;;;3.65;3.25;;;;;;;;;;5057900;28;20386;-80
2023/10/24 01:33:07;;;;;;;3.90;3.50;;;;;;;;;;5057630;28;20389;-80
2023/10/24 01:35:33;;;;;;;3.65;3.28;;;;;;;;;;5057792;28;20389;-80
2023/10/24 01:37:59;;;;;;;3.55;2.97;;;;;;;;;;5057129;28;20927;-80
2023/10/24 01:40:25;;;;;;;4.82;3.28;;;;;;;;;;5057909;28;20392;-80
2023/10/24 01:42:51;;;;;;;4.22;3.30;;;;;;;;;;5057966;28;20402;-80
2023/10/24 01:45:17;;;;;;;4.68;3.17;;;;;;;;;;5057704;28;20870;-80
2023/10/24 01:47:43;;;;;;;3.50;3.20;;;;;;;;;;5057539;28;20754;-80
2023/10/24 01:50:09;;;;;;;3.30;3.00;;;;;;;;;;5058412;28;20863;-80
2023/10/24 01:52:35;;;;;;;3.17;2.88;;;;;;;;;;5061570;28;20386;-80
2023/10/24 01:55:01;;;;;;;3.67;3.17;;;;;;;;;;5069674;28;20420;-80
2023/10/24 01:57:27;;;;;;;3.63;2.92;;;;;;;;;;5065326;28;20912;-80
2023/10/24 01:59:53;;;;;;;4.30;3.07;;;;;;;;;;5054825;28;20397;-80
2023/10/24 02:02:19;;;;;;;3.45;3.05;;;;;;;;;;5054408;28;20405;-80
2023/10/24 02:04:45;;;;;;;3.22;2.80;;;;;;;;;;5053875;28;20855;-80
2023/10/24 02:07:11;;;;;;;3.17;2.70;;;;;;;;;;5054185;28;20390;-80
2023/10/24 02:09:37;;;;;;;3.87;2.73;;;;;;;;;;5036099;28;20377;-80
2023/10/24 02:12:04;;;;;;;2.72;2.53;;;;;;;;;;5052859;28;20378;-80
2023/10/24 02:14:30;;;;;;;3.17;2.67;;;;;;;;;;5054097;28;20472;-80
2023/10/24 02:16:56;;;;;;;3.05;2.85;;;;;;;;;;5054146;28;20446;-80
2023/10/24 02:19:22;;;;;;;2.72;2.53;;;;;;;;;;5047284;28;20376;-80
2023/10/24 02:21:48;;;;;;;2.80;2.60;;;;;;;;;;5047879;28;20498;-80
2023/10/24 02:24:14;;;;;;;2.60;2.28;;;;;;;;;;5045329;28;20397;-80
2023/10/24 02:26:40;;;;;;;3.15;2.60;;;;;;;;;;5052679;28;20421;-80
2023/10/24 02:29:06;;;;;;;2.78;2.42;;;;;;;;;;5053279;28;20381;-80
2023/10/24 02:31:32;;;;;;;3.05;2.40;;;;;;;;;;5054962;28;20392;-80
2023/10/24 02:33:58;;;;;;;3.30;2.58;;;;;;;;;;5054926;28;20377;-80
2023/10/24 02:36:24;;;;;;;2.63;2.35;;;;;;;;;;5054966;28;20404;-80
2023/10/24 02:38:50;;;;;;;4.10;2.30;;;;;;;;;;5055374;28;20540;-80
2023/10/24 02:41:16;;;;;;;2.58;2.20;;;;;;;;;;5054854;28;20393;-80
2023/10/24 02:43:42;;;;;;;3.65;2.35;;;;;;;;;;5055097;28;20739;-80
2023/10/24 02:46:08;;;;;;;2.67;2.40;;;;;;;;;;5054639;28;20393;-80
2023/10/24 02:48:34;;;;;;;2.85;2.58;;;;;;;;;;5055709;28;20389;-80
2023/10/24 02:51:01;;;;;;;3.35;2.58;;;;;;;;;;5054910;28;20385;-80
2023/10/24 02:53:27;;;;;;;2.95;2.38;;;;;;;;;;5055115;28;20394;-80
2023/10/24 02:55:53;;;;;;;3.22;2.92;;;;;;;;;;5055369;28;20857;-80
2023/10/24 02:58:19;;;;;;;3.42;2.55;;;;;;;;;;5055926;28;20468;-80
2023/10/24 03:00:46;;;;;;;3.65;2.50;;;;;;;;;;5055467;28;20792;-80
2023/10/24 03:03:12;;;;;;;3.75;2.85;;;;;;;;;;5055145;28;20413;-80
2023/10/24 03:05:38;;;;;;;2.90;2.58;;;;;;;;;;5055369;28;20468;-80
2023/10/24 03:08:05;;;;;;;4.40;2.90;;;;;;;;;;5055560;28;20400;-80
2023/10/24 03:10:31;;;;;;;3.72;2.50;;;;;;;;;;5056218;28;20374;-80
2023/10/24 03:12:57;;;;;;;3.60;2.53;;;;;;;;;;5055895;28;20750;-80
2023/10/24 03:15:23;;;;;;;2.80;2.40;;;;;;;;;;5056461;28;20382;-80
2023/10/24 03:17:49;;;;;;;2.97;2.20;;;;;;;;;;5055347;28;20481;-80
2023/10/24 03:20:15;;;;;;;3.83;2.60;;;;;;;;;;5055791;28;20435;-80
2023/10/24 03:22:41;;;;;;;3.45;2.58;;;;;;;;;;5056161;28;20425;-80
2023/10/24 03:25:07;;;;;;;3.10;2.42;;;;;;;;;;5055572;28;20477;-80
2023/10/24 03:27:33;;;;;;;2.80;2.50;;;;;;;;;;5055545;28;20424;-80
2023/10/24 03:29:59;;;;;;;2.65;2.10;;;;;;;;;;5055582;28;20389;-80
2023/10/24 03:32:27;;;;;;;2.63;2.42;;;;;;;;;;5055237;28;20385;-80
2023/10/24 03:34:53;;;;;;;3.45;2.72;;;;;;;;;;5055864;28;20527;-80
2023/10/24 03:37:20;;;;;;;2.80;2.60;;;;;;;;;;5056037;28;20770;-80
2023/10/24 03:39:46;;;;;;;3.58;2.53;;;;;;;;;;5055672;28;20393;-80
2023/10/24 03:42:16;;;;;;;3.42;2.60;;;;;;;;;;5055816;28;20416;-80
2023/10/24 03:44:42;;;;;;;3.00;2.50;;;;;;;;;;5055736;28;20831;-80
2023/10/24 03:47:08;;;;;;;2.85;2.50;;;;;;;;;;5055660;28;20389;-80
2023/10/24 03:49:34;;;;;;;2.73;2.30;;;;;;;;;;5055757;28;20515;-80
2023/10/24 03:52:00;;;;;;;2.92;2.53;;;;;;;;;;5054945;28;20399;-80
2023/10/24 03:54:27;;;;;;;2.20;2.00;;;;;;;;;;5055444;28;20411;-80
2023/10/24 03:56:53;;;;;;;2.37;2.10;;;;;;;;;;5055279;28;20861;-80
2023/10/24 03:59:19;;;;;;;4.53;2.50;;;;;;;;;;5054642;28;20389;-80
2023/10/24 04:01:45;;;;;;;2.40;2.08;;;;;;;;;;5055957;28;20900;-81
2023/10/24 04:04:11;;;;;;;3.45;2.33;;;;;;;;;;5055696;28;20381;-80
2023/10/24 04:06:37;;;;;;;3.90;2.37;;;;;;;;;;5055942;28;20373;-80
2023/10/24 04:09:06;;;;;;;2.55;2.20;;;;;;;;;;5055389;28;20827;-80
2023/10/24 04:11:33;;;;;;;2.47;2.20;;;;;;;;;;5054849;28;20384;-80
2023/10/24 04:13:59;;;;;;;3.08;2.75;;;;;;;;;;5054947;28;20390;-80
2023/10/24 04:16:25;;;;;;;3.63;2.40;;;;;;;;;;5054965;28;20388;-80
2023/10/24 04:18:51;;;;;;;2.77;2.33;;;;;;;;;;5055272;28;20397;-80
2023/10/24 04:21:17;;;;;;;2.40;2.10;;;;;;;;;;5054997;28;20510;-80
2023/10/24 04:23:44;;;;;;;2.50;2.30;;;;;;;;;;5055374;28;20402;-80
2023/10/24 04:26:10;;;;;;;3.92;2.65;;;;;;;;;;5055130;28;20377;-80
2023/10/24 04:28:36;;;;;;;2.70;2.50;;;;;;;;;;5054661;28;20863;-80
2023/10/24 04:31:02;;;;;;;2.40;2.20;;;;;;;;;;5054849;28;20386;-80
2023/10/24 04:33:28;;;;;;;3.63;3.00;;;;;;;;;;5055375;28;20388;-80
2023/10/24 04:35:54;;;;;;;3.67;2.85;;;;;;;;;;5054271;28;20428;-80
2023/10/24 04:38:20;;;;;;;2.47;2.20;;;;;;;;;;5054433;28;20385;-80
2023/10/24 04:40:47;;;;;;;4.00;2.70;;;;;;;;;;5054199;28;20425;-80
2023/10/24 04:43:13;;;;;;;4.72;2.90;;;;;;;;;;5054766;28;20473;-80
2023/10/24 04:45:39;;;;;;;3.23;2.80;;;;;;;;;;5054443;28;20919;-80
2023/10/24 04:48:05;;;;;;;4.10;2.78;;;;;;;;;;5054517;28;20385;-80
2023/10/24 04:50:31;;;;;;;3.17;2.70;;;;;;;;;;5054974;28;20448;-80
2023/10/24 04:52:57;;;;;;;3.00;2.70;;;;;;;;;;5054622;28;20884;-80
2023/10/24 04:55:23;;;;;;;4.07;2.37;;;;;;;;;;5055110;28;20377;-80
2023/10/24 04:57:50;;;;;;;3.33;2.30;;;;;;;;;;5057555;28;20425;-80
2023/10/24 05:00:16;;;;;;;2.88;2.63;;;;;;;;;;5063055;28;20382;-80
2023/10/24 05:02:43;;;;;;;2.60;2.40;;;;;;;;;;5059215;28;20410;-80
2023/10/24 05:05:09;;;;;;;2.90;2.58;;;;;;;;;;5034890;28;20455;-80
2023/10/24 05:07:35;;;;;;;4.82;2.70;;;;;;;;;;5051582;28;20431;-80
2023/10/24 05:10:01;;;;;;;2.77;2.57;;;;;;;;;;5051037;28;20385;-80
2023/10/24 05:12:27;;;;;;;2.63;2.42;;;;;;;;;;5051519;28;20374;-80
2023/10/24 05:14:53;;;;;;;3.20;2.67;;;;;;;;;;5051197;28;20377;-80
2023/10/24 05:17:19;;;;;;;4.80;2.67;;;;;;;;;;5051286;28;20878;-80
2023/10/24 05:19:45;;;;;;;3.90;2.92;;;;;;;;;;5051828;28;20885;-80
2023/10/24 05:22:12;;;;;;;3.72;2.85;;;;;;;;;;5051415;28;20409;-80
2023/10/24 05:24:39;;;;;;;3.30;3.00;;;;;;;;;;5051367;28;20393;-80
2023/10/24 05:27:05;;;;;;;3.90;2.92;;;;;;;;;;5051885;28;20377;-80
2023/10/24 05:29:34;;;;;;;2.80;2.50;;;;;;;;;;5052104;28;20389;-79
2023/10/24 05:32:01;;;;;;;3.10;2.80;;;;;;;;;;5052279;28;20391;-80
2023/10/24 05:34:27;;;;;;;2.70;2.50;;;;;;;;;;5052047;28;20385;-80
2023/10/24 05:36:53;;;;;;;3.53;3.10;;;;;;;;;;5051934;28;20380;-79
2023/10/24 05:39:19;;;;;;;3.90;3.50;;;;;;;;;;5052455;28;20441;-80
2023/10/24 05:41:46;;;;;;;5.15;3.85;;;;;;;;;;5054796;28;20421;-80
2023/10/24 05:44:12;;;;;;;3.78;3.47;;;;;;;;;;5054830;28;20431;-80
2023/10/24 05:46:38;;;;;;;3.25;3.05;;;;;;;;;;5055501;28;20381;-80
2023/10/24 05:49:04;;;;;;;4.85;3.38;;;;;;;;;;5058077;28;20408;-79
2023/10/24 05:51:30;;;;;;;5.25;4.20;;;;;;;;;;5057968;28;20832;-81
2023/10/24 05:53:57;;;;;;;5.43;4.93;;;;;;;;;;5057879;28;20409;-80
2023/10/24 05:56:23;;;;;;;4.68;4.00;;;;;;;;;;5045407;28;20382;-80
2023/10/24 05:58:49;;;;;;;4.15;3.75;;;;;;;;;;5040546;28;20709;-81
2023/10/24 06:01:15;;;;;;;4.57;3.50;;;;;;;;;;5052773;28;20393;-81
2023/10/24 06:03:41;;;;;;;3.38;3.15;;;;;;;;;;5052635;28;20776;-81
2023/10/24 06:06:07;;;;;;;5.10;3.05;;;;;;;;;;5052613;28;20396;-80
2023/10/24 06:08:33;;;;;;;4.40;3.67;;;;;;;;;;5057129;28;20385;-80
2023/10/24 06:11:01;;;;;;;3.35;3.00;;;;;;;;;;5056901;28;20476;-80
2023/10/24 06:13:27;;;;;;;3.85;3.20;;;;;;;;;;5057102;28;20381;-80
2023/10/24 06:15:53;;;;;;;4.05;3.35;;;;;;;;;;5056694;28;20388;-80
2023/10/24 06:18:19;;;;;;;3.78;3.10;;;;;;;;;;5056569;28;20428;-80
2023/10/24 06:20:45;;;;;;;5.18;2.95;;;;;;;;;;5056415;28;20385;-80
2023/10/24 06:23:11;;;;;;;6.32;4.30;;;;;;;;;;5056483;28;20421;-80
2023/10/24 06:25:41;;;;;;;4.22;3.35;;;;;;;;;;5056358;28;20431;-80
2023/10/24 06:28:08;;;;;;;5.20;3.45;;;;;;;;;;5056580;28;20385;-80
2023/10/24 06:30:34;;;;;;;3.75;3.45;;;;;;;;;;5057078;28;20799;-80
2023/10/24 06:33:00;;;;;;;4.78;4.28;;;;;;;;;;5057443;28;20389;-80
2023/10/24 06:35:26;;;;;;;5.22;3.83;;;;;;;;;;5055911;28;20380;-80
2023/10/24 06:37:52;;;;;;;4.43;4.03;;;;;;;;;;5056686;28;20382;-80
2023/10/24 06:40:18;;;;;;;6.78;4.20;;;;;;;;;;5056445;28;20962;-80
2023/10/24 06:42:45;;;;;;;6.03;4.65;;;;;;;;;;5056015;28;20413;-79
2023/10/24 06:45:11;;;;;;;5.07;4.55;;;;;;;;;;5056996;28;20389;-80
2023/10/24 06:47:37;;;;;;;8.27;5.10;;;;;;;;;;5057002;28;20386;-80
2023/10/24 06:50:03;;;;;;;6.30;5.00;;;;;;;;;;5058340;28;20723;-80
2023/10/24 06:52:30;;;;;;;5.78;5.03;;;;;;;;;;5057503;28;20393;-80
2023/10/24 06:54:56;;;;;;;5.28;4.82;;;;;;;;;;5057333;28;20835;-80
2023/10/24 06:57:23;;;;;;;7.32;5.40;;;;;;;;;;5056661;28;20389;-80
2023/10/24 06:59:49;;;;;;;6.75;5.57;;;;;;;;;;5056134;28;20482;-80
2023/10/24 07:02:15;;;;;;;6.10;5.50;;;;;;;;;;5057291;28;20927;-80
2023/10/24 07:04:41;;;;;;;7.05;4.90;;;;;;;;;;5055927;28;20388;-80
2023/10/24 07:07:07;;;;;;;5.35;4.85;;;;;;;;;;5056342;28;20436;-80
2023/10/24 07:09:33;;;;;;;7.53;4.75;;;;;;;;;;5055962;28;20390;-80
2023/10/24 07:11:59;;;;;;;6.40;4.63;;;;;;;;;;5055387;28;20389;-81
2023/10/24 07:14:25;;;;;;;6.00;4.97;;;;;;;;;;5050505;28;20390;-80
2023/10/24 07:16:51;;;;;;;5.35;4.80;;;;;;;;;;5056765;28;20370;-80
2023/10/24 07:19:20;;;;;;;5.60;5.10;;;;;;;;;;5056652;28;20385;-80
2023/10/24 07:21:46;;;;;;;5.80;4.85;;;;;;;;;;5055813;28;20401;-80
2023/10/24 07:24:13;;;;;;;7.13;5.38;;;;;;;;;;5055594;28;20448;-80
2023/10/24 07:26:39;;;;;;;5.75;4.40;;;;;;;;;;5055891;28;20369;-80
2023/10/24 07:29:05;;;;;;;4.90;4.40;;;;;;;;;;5055654;28;20408;-80
2023/10/24 07:31:31;;;;;;;6.63;4.70;;;;;;;;;;5056437;28;20906;-80
2023/10/24 07:33:57;;;;;;;7.27;4.77;;;;;;;;;;5038241;28;20468;-80
2023/10/24 07:36:26;;;;;;;6.22;4.30;;;;;;;;;;5055879;28;20428;-80
2023/10/24 07:38:52;;;;;;;4.82;4.32;;;;;;;;;;5055895;28;20464;-80
2023/10/24 07:41:18;;;;;;;4.75;4.07;;;;;;;;;;5056348;28;20386;-80
2023/10/24 07:43:45;;;;;;;6.72;3.97;;;;;;;;;;5056107;28;20451;-80
2023/10/24 07:46:11;;;;;;;5.67;4.23;;;;;;;;;;5055775;28;20413;-80
2023/10/24 07:48:36;;;;;;;6.43;4.15;;;;;;;;;;5056861;28;20397;-80
2023/10/24 07:51:03;;;;;;;5.35;4.20;;;;;;;;;;5056599;28;20442;-80
2023/10/24 07:53:29;;;;;;;4.87;4.10;;;;;;;;;;5056189;28;20551;-80
2023/10/24 07:55:55;;;;;;;4.95;4.45;;;;;;;;;;5055698;28;20396;-80
2023/10/24 07:58:21;;;;;;;4.80;4.30;;;;;;;;;;5057701;28;20374;-80
2023/10/24 08:00:47;;;;;;;5.07;4.57;;;;;;;;;;5056758;28;20443;-80
2023/10/24 08:03:14;;;;;;;13.70;9.98;;;;;;;;;;5058818;28;20405;-80
2023/10/24 08:05:40;;;;;;;6.78;5.35;;;;;;;;;;5059403;28;20398;-80
2023/10/24 08:08:06;;;;;;;6.00;4.78;;;;;;;;;;5071090;28;20400;-80
2023/10/24 08:10:33;;;;;;;6.50;4.80;;;;;;;;;;5067885;28;20396;-80
2023/10/24 08:13:00;;;;;;;5.90;4.88;;;;;;;;;;5041328;28;20397;-80
2023/10/24 08:15:26;;;;;;;6.43;5.47;;;;;;;;;;5055654;28;20412;-80
2023/10/24 08:17:52;;;;;;;8.48;5.20;;;;;;;;;;5055229;28;20381;-80
2023/10/24 08:20:18;;;;;;;7.50;5.82;;;;;;;;;;5055036;28;20400;-80
2023/10/24 08:22:44;;;;;;;9.70;8.77;;;;;;;;;;5055287;28;20732;-80
2023/10/24 08:25:10;;;;;;;9.30;8.30;;;;;;;;;;5054965;28;20439;-80
2023/10/24 08:27:36;;;;;;;7.50;6.80;;;;;;;;;;5054212;28;20373;-80
2023/10/24 08:30:06;;;;;;;7.60;6.90;;;;;;;;;;5054412;28;20455;-80
2023/10/24 08:32:32;;;;;;;8.35;5.90;;;;;;;;;;5053799;28;20381;-80
2023/10/24 08:34:59;;;;;;;6.85;5.72;;;;;;;;;;5053840;28;20381;-80
2023/10/24 08:37:25;;;;;;;7.80;6.50;;;;;;;;;;5053666;28;20884;-80
2023/10/24 08:39:52;;;;;;;7.87;6.43;;;;;;;;;;5054534;28;20381;-81
2023/10/24 08:42:18;;;;;;;7.32;6.07;;;;;;;;;;5053599;28;20942;-81
2023/10/24 08:44:44;;;;;;;6.45;5.85;;;;;;;;;;5053800;28;20407;-81
2023/10/24 08:47:11;;;;;;;6.80;6.07;;;;;;;;;;5046236;28;20476;-81
2023/10/24 08:49:37;;;;;;;6.93;5.63;;;;;;;;;;5047905;28;20464;-81
2023/10/24 08:52:04;;;;;;;5.50;5.00;;;;;;;;;;5054624;28;20428;-82
2023/10/24 08:54:30;;;;;;;7.68;5.20;;;;;;;;;;5053368;28;20477;-81
2023/10/24 08:56:57;;;;;;;6.72;5.22;;;;;;;;;;5044562;28;20420;-81
2023/10/24 08:59:26;;;;;;;5.20;4.80;;;;;;;;;;5031239;28;20813;-81
2023/10/24 09:01:52;;;;;;;5.53;4.63;;;;;;;;;;5055020;28;20791;-81
2023/10/24 09:04:18;;;;;;;6.25;5.05;;;;;;;;;;5054266;28;20389;-81
2023/10/24 09:06:44;;;;;;;5.80;4.70;;;;;;;;;;5054364;28;20488;-81
2023/10/24 09:09:09;;;;;;;4.70;4.30;;;;;;;;;;5054359;28;20409;-81
2023/10/24 09:11:55;;;;;;;4.87;4.17;;;;;;;;;;5053603;28;20388;-81
2023/10/24 09:14:22;;;;;;;5.40;4.90;;;;;;;;;;5054046;28;20374;-81
2023/10/24 09:16:54;;;;;;;5.28;4.70;;;;;;;;;;5054112;28;20416;-81
2023/10/24 09:19:21;;;;;;;5.75;4.53;;;;;;;;;;5054456;28;20388;-81
2023/10/24 09:21:48;;;;;;;5.03;4.53;;;;;;;;;;5054749;28;20898;-81
2023/10/24 09:24:15;;;;;;;6.18;4.90;;;;;;;;;;5057792;28;20456;-81
2023/10/24 09:26:41;;;;;;;6.60;4.73;;;;;;;;;;5057307;28;20435;-81
2023/10/24 09:29:10;;;;;;;6.72;5.82;;;;;;;;;;5057792;28;20373;-81
2023/10/24 09:31:36;;;;;;;7.57;6.23;;;;;;;;;;5058414;28;20472;-81
2023/10/24 09:34:02;;;;;;;7.30;5.90;;;;;;;;;;5057599;28;20416;-81
2023/10/24 09:36:28;;;;;;;5.95;5.35;;;;;;;;;;5058083;28;20462;-81
2023/10/24 09:38:54;;;;;;;5.63;5.07;;;;;;;;;;5058324;28;20400;-81
2023/10/24 09:41:21;;;;;;;6.00;4.90;;;;;;;;;;5057567;28;20385;-81
2023/10/24 09:43:50;;;;;;;6.28;5.55;;;;;;;;;;5051064;28;20428;-81
2023/10/24 09:46:21;;;;;;;6.35;5.32;;;;;;;;;;5057683;28;20424;-81
2023/10/24 09:48:48;;;;;;;9.15;6.57;;;;;;;;;;5057904;28;20397;-81
2023/10/24 09:51:14;;;;;;;7.80;7.10;;;;;;;;;;5057290;28;20386;-81
2023/10/24 09:53:41;;;;;;;8.45;7.70;;;;;;;;;;5038810;28;20390;-80
2023/10/24 09:56:10;;;;;;;9.43;8.50;;;;;;;;;;5057061;28;20416;-80
2023/10/24 09:58:41;;;;;;;8.30;7.20;;;;;;;;;;5056806;28;20397;-80
2023/10/24 10:01:07;;;;;;;8.10;7.30;;;;;;;;;;5052702;28;20383;-80
2023/10/24 10:03:34;;;;;;;8.45;7.72;;;;;;;;;;5055446;28;20472;-80
2023/10/24 10:06:04;;;;;;;8.20;7.40;;;;;;;;;;5056936;28;20400;-80
2023/10/24 10:08:33;;;;;;;6.32;5.72;;;;;;;;;;5057449;28;20397;-80
2023/10/24 10:11:00;;;;;;;6.05;5.32;;;;;;;;;;5057326;28;20393;-80
2023/10/24 10:13:30;;;;;;;7.38;6.10;;;;;;;;;;5057248;28;20396;-80
2023/10/24 10:16:19;;;;;;;6.23;5.63;;;;;;;;;;5057128;28;20510;-80
2023/10/24 10:19:13;;;;;;;5.53;5.03;;;;;;;;;;5010761;28;20386;-80
2023/10/24 10:22:00;;;;;;;5.70;5.20;;;;;;;;;;5054449;28;20400;-80
2023/10/24 10:24:33;;;;;;;5.00;4.50;;;;;;;;;;5048618;28;20477;-80
2023/10/24 10:26:59;;;;;;;4.57;4.18;;;;;;;;;;5056374;28;20389;-80
2023/10/24 10:29:28;;;;;;;4.72;3.83;;;;;;;;;;5057163;28;20386;-81
2023/10/24 10:32:00;;;;;;;3.90;3.60;;;;;;;;;;5056637;28;20401;-81
2023/10/24 10:34:34;;;;;;;4.57;3.22;;;;;;;;;;5056449;28;20389;-80
2023/10/24 10:37:00;;;;;;;4.30;3.90;;;;;;;;;;5057086;28;20410;-80
2023/10/24 10:39:26;;;;;;;3.83;3.53;;;;;;;;;;5056434;28;20382;-81
2023/10/24 10:41:52;;;;;;;4.80;3.92;;;;;;;;;;5057210;28;20401;-82
2023/10/24 10:44:35;;;;;;;3.80;3.50;;;;;;;;;;5057370;28;20394;-80
2023/10/24 10:47:02;;;;;;;4.57;4.18;;;;;;;;;;5056924;28;20420;-80
2023/10/24 10:49:38;;;;;;;3.65;3.35;;;;;;;;;;5057545;28;20489;-81
2023/10/24 10:52:05;;;;;;;3.90;3.60;;;;;;;;;;5045322;28;20387;-81
2023/10/24 10:54:38;;;;;;;4.80;4.30;;;;;;;;;;5055872;28;20417;-80
2023/10/24 10:57:05;;;;;;;6.10;5.00;;;;;;;;;;5057564;28;20396;-80
2023/10/24 10:59:54;;;;;;;5.57;4.70;;;;;;;;;;5056897;28;20382;-80
2023/10/24 11:02:39;;;;;;;4.50;4.10;;;;;;;;;;5055801;28;20445;-80
2023/10/24 11:05:23;;;;;;;4.40;4.00;;;;;;;;;;5043511;28;20683;-80
2023/10/24 11:07:54;;;;;;;4.93;4.30;;;;;;;;;;5055628;28;20468;-80
2023/10/24 11:10:20;;;;;;;5.15;4.68;;;;;;;;;;5047984;28;20391;-80
2023/10/24 11:12:49;;;;;;;5.03;4.47;;;;;;;;;;5049532;28;20389;-80
2023/10/24 11:15:16;;;;;;;5.43;4.93;;;;;;;;;;5055552;28;20389;-80
2023/10/24 11:17:43;;;;;;;5.53;5.03;;;;;;;;;;5041211;28;20406;-80
2023/10/24 11:20:10;;;;;;;5.53;5.03;;;;;;;;;;5058094;28;20401;-80
2023/10/24 11:22:36;;;;;;;5.85;5.35;;;;;;;;;;5055312;28;20441;-80
2023/10/24 11:25:08;;;;;;;4.78;4.38;;;;;;;;;;5051453;28;20403;-80
2023/10/24 11:27:35;;;;;;;6.63;5.63;;;;;;;;;;5043001;28;20465;-80
2023/10/24 11:30:01;;;;;;;6.63;4.72;;;;;;;;;;5042328;28;20383;-80
2023/10/24 11:32:28;;;;;;;5.00;4.50;;;;;;;;;;5039061;28;20456;-80
2023/10/24 11:34:55;;;;;;;4.47;4.05;;;;;;;;;;5052827;28;20385;-80
2023/10/24 11:37:21;;;;;;;4.47;4.07;;;;;;;;;;5048367;28;20382;-80
2023/10/24 11:39:47;;;;;;;5.43;4.00;;;;;;;;;;5049640;28;20390;-80
2023/10/24 11:42:13;;;;;;;5.72;4.38;;;;;;;;;;5049928;28;20419;-80
2023/10/24 11:44:42;;;;;;;6.45;4.90;;;;;;;;;;5050005;28;20461;-80
2023/10/24 11:47:14;;;;;;;7.43;5.38;;;;;;;;;;5049385;28;20381;-80
2023/10/24 11:49:40;;;;;;;5.60;4.90;;;;;;;;;;5044260;28;20374;-80
2023/10/24 11:52:06;;;;;;;7.60;5.03;;;;;;;;;;5049761;28;20389;-80
2023/10/24 11:54:32;;;;;;;5.20;4.80;;;;;;;;;;5049327;28;20397;-80
2023/10/24 11:56:59;;;;;;;4.78;4.28;;;;;;;;;;5054208;28;20464;-81
2023/10/24 11:59:32;;;;;;;4.97;4.57;;;;;;;;;;5053063;28;20387;-80
2023/10/24 12:01:57;;;;;;;3.90;3.60;;;;;;;;;;5052003;28;20405;-80
2023/10/24 12:04:26;;;;;;;4.10;3.80;;;;;;;;;;5048793;28;20512;-82
2023/10/24 12:07:01;;;;;;;4.28;3.75;;;;;;;;;;5052022;28;20373;-81
2023/10/24 12:09:27;;;;;;;5.03;4.53;;;;;;;;;;5052945;28;20389;-82
2023/10/24 12:11:53;;;;;;;4.10;3.75;;;;;;;;;;5053425;28;20393;-82
2023/10/24 12:14:18;;;;;;;4.20;3.80;;;;;;;;;;5053470;28;20404;-82
2023/10/24 12:16:47;;;;;;;3.90;3.50;;;;;;;;;;5052447;28;20393;-82
2023/10/24 12:19:13;;;;;;;4.15;3.75;;;;;;;;;;5052841;28;20469;-82
2023/10/24 12:21:39;;;;;;;3.97;3.67;;;;;;;;;;5053406;28;20420;-82
2023/10/24 12:24:05;;;;;;;4.50;4.20;;;;;;;;;;5053595;28;21073;-82
2023/10/24 12:26:31;;;;;;;4.15;3.85;;;;;;;;;;5053156;28;20376;-80
2023/10/24 12:28:57;;;;;;;3.50;3.22;;;;;;;;;;5053433;28;20827;-80
2023/10/24 12:31:23;;;;;;;3.90;3.60;;;;;;;;;;5053443;28;20381;-80
2023/10/24 12:33:50;;;;;;;4.25;3.95;;;;;;;;;;5052964;28;20863;-80
2023/10/24 12:36:20;;;;;;;3.95;3.55;;;;;;;;;;5053054;28;20463;-80
2023/10/24 12:38:46;;;;;;;4.40;4.10;;;;;;;;;;5053513;28;20392;-80
2023/10/24 12:41:12;;;;;;;4.03;3.72;;;;;;;;;;5053139;28;20382;-80
2023/10/24 12:43:38;;;;;;;4.18;3.80;;;;;;;;;;5053318;28;20475;-80
2023/10/24 12:46:04;;;;;;;4.13;3.78;;;;;;;;;;5053278;28;20382;-79
2023/10/24 12:48:30;;;;;;;4.22;3.83;;;;;;;;;;5053975;28;20404;-80
2023/10/24 12:50:56;;;;;;;4.28;3.97;;;;;;;;;;5053691;28;20777;-80
2023/10/24 12:53:22;;;;;;;4.10;3.80;;;;;;;;;;5053908;28;20381;-80
2023/10/24 12:55:48;;;;;;;3.65;3.38;;;;;;;;;;5053151;28;20431;-80
2023/10/24 12:58:14;;;;;;;3.33;3.03;;;;;;;;;;5053078;28;20389;-80
2023/10/24 13:00:40;;;;;;;3.30;3.00;;;;;;;;;;5053687;28;20835;-80
2023/10/24 13:03:06;;;;;;;3.47;3.17;;;;;;;;;;5053584;28;20428;-80
2023/10/24 13:05:32;;;;;;;3.30;3.10;;;;;;;;;;5053589;28;20436;-80
2023/10/24 13:07:58;;;;;;;3.65;3.35;;;;;;;;;;5054150;28;20385;-80
2023/10/24 13:10:25;;;;;;;3.73;3.43;;;;;;;;;;5054304;28;20397;-80
2023/10/24 13:12:51;;;;;;;4.20;3.90;;;;;;;;;;5053957;28;20441;-79
2023/10/24 13:15:18;;;;;;;4.30;3.53;;;;;;;;;;5054096;28;20429;-80
2023/10/24 13:17:44;;;;;;;4.05;3.75;;;;;;;;;;5053519;28;20389;-80
2023/10/24 13:20:11;;;;;;;4.03;3.73;;;;;;;;;;5054168;28;20463;-80
2023/10/24 13:22:37;;;;;;;4.47;4.07;;;;;;;;;;5053681;28;20413;-80
2023/10/24 13:25:03;;;;;;;4.37;3.97;;;;;;;;;;5054685;28;20389;-80
2023/10/24 13:27:29;;;;;;;4.72;4.22;;;;;;;;;;5053814;28;20472;-79
2023/10/24 13:29:55;;;;;;;4.10;3.80;;;;;;;;;;5053082;28;20405;-79
2023/10/24 13:32:21;;;;;;;4.60;4.10;;;;;;;;;;5053373;28;20425;-79
2023/10/24 13:34:47;;;;;;;4.40;4.00;;;;;;;;;;5053533;28;20382;-80
2023/10/24 13:37:13;;;;;;;3.60;3.40;;;;;;;;;;5048211;28;20381;-80
2023/10/24 13:39:39;;;;;;;3.50;3.20;;;;;;;;;;5052368;28;20389;-80
2023/10/24 13:42:05;;;;;;;3.70;3.40;;;;;;;;;;5050626;28;20416;-80
2023/10/24 13:44:31;;;;;;;3.47;3.17;;;;;;;;;;5052504;28;20397;-80
2023/10/24 13:46:57;;;;;;;3.28;3.00;;;;;;;;;;5052876;28;20515;-80
2023/10/24 13:49:23;;;;;;;3.03;2.72;;;;;;;;;;5053057;28;20423;-80
2023/10/24 13:51:52;;;;;;;3.20;2.50;;;;;;;;;;5052342;28;20389;-80
2023/10/24 13:54:18;;;;;;;3.15;2.65;;;;;;;;;;5051835;28;20393;-80
2023/10/24 13:56:44;;;;;;;3.60;2.50;;;;;;;;;;5051883;28;20416;-80
2023/10/24 13:59:10;;;;;;;2.60;2.40;;;;;;;;;;5051893;28;20385;-80
2023/10/24 14:01:36;;;;;;;2.33;2.13;;;;;;;;;;5045393;28;20587;-80
2023/10/24 14:04:02;;;;;;;2.40;2.20;;;;;;;;;;5045666;28;20397;-80
2023/10/24 14:06:29;;;;;;;2.38;2.17;;;;;;;;;;5051691;28;20381;-81
2023/10/24 14:08:56;;;;;;;2.55;2.20;;;;;;;;;;5043948;28;20391;-81
2023/10/24 14:11:22;;;;;;;2.40;2.20;;;;;;;;;;5052552;28;20381;-81
2023/10/24 14:13:48;;;;;;;2.60;2.00;;;;;;;;;;5055773;28;20385;-81
2023/10/24 14:16:14;;;;;;;2.93;2.47;;;;;;;;;;5056053;28;20421;-80
2023/10/24 14:18:40;;;;;;;3.97;2.20;;;;;;;;;;5056291;28;20413;-80
2023/10/24 14:21:06;;;;;;;2.50;2.17;;;;;;;;;;5055995;28;20405;-80
2023/10/24 14:23:32;;;;;;;1.85;1.67;;;;;;;;;;5055277;28;20405;-81
2023/10/24 14:26:01;;;;;;;2.08;1.92;;;;;;;;;;5055980;28;20393;-81
2023/10/24 14:28:28;;;;;;;2.90;2.20;;;;;;;;;;5056091;28;20385;-81
2023/10/24 14:30:53;;;;;;;2.13;2.03;;;;;;;;;;5056356;28;20409;-81
2023/10/24 14:33:20;;;;;;;1.80;1.60;;;;;;;;;;5060175;28;20854;-81
2023/10/24 14:35:47;;;;;;;2.85;1.90;;;;;;;;;;5053377;28;20386;-80
2023/10/24 14:38:13;;;;;;;2.08;1.88;;;;;;;;;;5053329;28;20381;-80
2023/10/24 14:40:39;;;;;;;2.37;1.80;;;;;;;;;;5053630;28;20463;-80